Time;durP1;ratioP1;P1;durP2;ratioP2;P2;SDS_P1;SDS_P2;PMS_P1;PMS_P2;Temp;Humidity;BMP_temperature;BMP_pressure;BME280_temperature;BME280_humidity;BME280_pressure;Samples;Min_cycle;Max_cycle;Signal;HPM_P1;HPM_P2
2022/08/05 00:00:20;;;;;;;;;;;;;;;28.11;25.07;101081.44;4448158;32;19957;-68
2022/08/05 00:02:46;;;;;;;;;;;;;;;28.13;25.19;101084.56;4443285;32;20422;-68
2022/08/05 00:05:12;;;;;;;;;;;;;;;28.14;25.00;101080.34;4443010;32;20013;-69
2022/08/05 00:07:37;;;;;;;;;;;;;;;28.71;24.25;101093.22;4445786;32;19945;-68
2022/08/05 00:10:03;;;;;;;;;;;;;;;28.33;24.75;101091.84;4443750;32;19957;-68
2022/08/05 00:12:29;;;;;;;;;;;;;;;28.04;24.94;101087.87;4445647;32;20040;-68
2022/08/05 00:14:54;;;;;;;;;;;;;;;28.14;24.91;101085.34;4443059;32;19963;-68
2022/08/05 00:17:20;;;;;;;;;;;;;;;27.69;25.57;101096.06;4443237;32;19964;-68
2022/08/05 00:19:45;;;;;;;;;;;;;;;28.01;25.37;101083.19;4443730;32;19981;-68
2022/08/05 00:22:11;;;;;;;;;;;;;;;27.41;26.46;101081.25;4445496;32;19966;-68
2022/08/05 00:24:37;;;;;;;;;;;;;;;27.16;27.10;101072.62;4446564;32;20343;-68
2022/08/05 00:27:04;;;;;;;;;;;;;;;27.24;27.15;101069.91;4445725;32;21185;-68
2022/08/05 00:29:29;;;;;;;;;;;;;;;27.28;27.20;101070.41;4443487;32;20342;-69
2022/08/05 00:31:55;;;;;;;;;;;;;;;27.49;27.00;101065.62;4445006;32;19963;-68
2022/08/05 00:34:20;;;;;;;;;;;;;;;27.76;26.66;101070.16;4444880;32;20001;-68
2022/08/05 00:36:46;;;;;;;;;;;;;;;27.88;26.57;101080.25;4445291;32;20319;-68
2022/08/05 00:39:11;;;;;;;;;;;;;;;28.12;26.25;101074.31;4441590;32;19957;-68
2022/08/05 00:41:37;;;;;;;;;;;;;;;28.17;26.24;101079.22;4434887;32;20004;-68
2022/08/05 00:44:03;;;;;;;;;;;;;;;27.90;26.58;101082.59;4446965;32;19948;-68
2022/08/05 00:46:28;;;;;;;;;;;;;;;27.85;26.68;101080.56;4444218;32;19952;-68
2022/08/05 00:48:55;;;;;;;;;;;;;;;28.08;26.52;101078.88;4445907;32;20000;-68
2022/08/05 00:51:21;;;;;;;;;;;;;;;28.31;26.11;101080.00;4444521;32;20404;-68
2022/08/05 00:53:47;;;;;;;;;;;;;;;28.16;26.31;101086.34;4446104;32;20000;-68
2022/08/05 00:56:14;;;;;;;;;;;;;;;27.52;27.16;101095.53;4445371;32;19995;-68
2022/08/05 00:58:39;;;;;;;;;;;;;;;28.27;26.22;101097.72;4447654;32;20325;-68
2022/08/05 01:01:09;;;;;;;;;;;;;;;28.11;26.40;101090.13;4443435;32;20445;-68
2022/08/05 01:03:37;;;;;;;;;;;;;;;28.37;26.11;101104.63;4444934;32;20063;-68
2022/08/05 01:06:03;;;;;;;;;;;;;;;27.87;26.53;101096.06;4445979;32;20374;-68
2022/08/05 01:08:33;;;;;;;;;;;;;;;28.44;25.87;101089.50;4442180;32;19957;-68
2022/08/05 01:11:10;;;;;;;;;;;;;;;28.34;25.94;101094.16;4448517;32;19972;-68
2022/08/05 01:16:39;;;;;;;;;;;;;;;28.61;25.51;101103.69;3947992;32;15837473;-68
2022/08/05 01:19:11;;;;;;;;;;;;;;;28.61;25.51;101103.69;4428731;32;20425;-68
2022/08/05 01:29:45;;;;;;;;;;;;;;;27.91;26.34;101095.72;3951374;32;15722428;-67
2022/08/05 01:32:14;;;;;;;;;;;;;;;27.80;26.43;101098.78;4434987;32;20282;-67
2022/08/05 01:34:44;;;;;;;;;;;;;;;27.78;26.58;101104.31;4432938;32;20127;-67
2022/08/05 01:37:13;;;;;;;;;;;;;;;27.85;26.40;101104.47;4434269;32;19989;-67
2022/08/05 01:39:39;;;;;;;;;;;;;;;28.24;26.09;101101.72;4424631;32;19972;-67
2022/08/05 01:42:05;;;;;;;;;;;;;;;27.65;26.77;101105.06;4432997;32;19949;-67
2022/08/05 01:44:34;;;;;;;;;;;;;;;27.69;26.74;101114.19;4432911;32;20047;-68
2022/08/05 01:47:01;;;;;;;;;;;;;;;27.83;26.62;101101.37;4433136;32;20300;-68
2022/08/05 01:49:28;;;;;;;;;;;;;;;27.71;26.65;101105.75;4435307;32;20000;-68
2022/08/05 01:51:57;;;;;;;;;;;;;;;28.27;25.96;101100.63;4433722;32;20009;-68
2022/08/05 01:54:25;;;;;;;;;;;;;;;27.99;26.24;101096.66;4435042;32;20041;-68
2022/08/05 01:56:51;;;;;;;;;;;;;;;28.27;25.92;101096.94;4433929;32;19994;-68
2022/08/05 01:59:19;;;;;;;;;;;;;;;28.07;26.20;101104.13;4432566;32;20351;-68
2022/08/05 02:01:46;;;;;;;;;;;;;;;28.36;25.70;101108.88;4437018;32;20380;-69
2022/08/05 02:04:13;;;;;;;;;;;;;;;28.45;25.66;101096.06;4433419;32;19993;-68
2022/08/05 02:06:39;;;;;;;;;;;;;;;28.22;25.86;101095.69;4432601;32;19980;-70
2022/08/05 02:09:04;;;;;;;;;;;;;;;28.39;25.66;101095.41;4435850;32;20101;-70
2022/08/05 02:11:35;;;;;;;;;;;;;;;28.17;25.75;101087.91;4435744;32;20010;-70
2022/08/05 02:14:07;;;;;;;;;;;;;;;27.91;26.17;101095.72;4434058;32;20042;-70
2022/08/05 02:19:16;;;;;;;;;;;;;;;27.86;26.42;101088.72;3952020;32;15723570;-69
2022/08/05 02:21:46;;;;;;;;;;;;;;;27.98;26.07;101092.97;4435342;32;19997;-70
2022/08/05 02:24:16;;;;;;;;;;;;;;;27.79;26.27;101098.00;4431556;32;19993;-70
2022/08/05 02:26:45;;;;;;;;;;;;;;;27.48;26.59;101098.75;4433554;32;20000;-68
2022/08/05 02:29:11;;;;;;;;;;;;;;;27.34;26.72;101100.00;4432903;32;20369;-68
2022/08/05 02:31:38;;;;;;;;;;;;;;;27.41;26.83;101102.28;4432120;32;20003;-68
2022/08/05 02:34:06;;;;;;;;;;;;;;;27.32;26.93;101099.78;4431865;32;19953;-68
2022/08/05 02:36:34;;;;;;;;;;;;;;;27.18;26.96;101098.88;4433017;32;19959;-68
2022/08/05 02:39:01;;;;;;;;;;;;;;;27.69;26.37;101111.31;4429554;32;20085;-68
2022/08/05 02:41:27;;;;;;;;;;;;;;;27.41;26.79;101108.06;4433305;32;19953;-67
2022/08/05 02:43:54;;;;;;;;;;;;;;;27.39;26.63;101102.03;4433291;32;20004;-67
2022/08/05 02:46:20;;;;;;;;;;;;;;;27.18;26.78;101106.75;4432839;32;19965;-68
2022/08/05 02:48:47;;;;;;;;;;;;;;;27.11;26.82;101104.50;4434468;32;20428;-67
2022/08/05 02:51:13;;;;;;;;;;;;;;;27.34;26.47;101114.47;4433538;32;20058;-67
2022/08/05 02:53:40;;;;;;;;;;;;;;;27.60;26.21;101122.47;4431094;32;19993;-67
2022/08/05 02:56:07;;;;;;;;;;;;;;;27.04;26.89;101113.78;4429930;32;19994;-67
2022/08/05 02:58:33;;;;;;;;;;;;;;;26.43;27.81;101117.34;4419217;32;20030;-67
2022/08/05 03:01:00;;;;;;;;;;;;;;;27.08;26.80;101117.94;4431802;32;19969;-67
2022/08/05 03:03:26;;;;;;;;;;;;;;;27.17;26.59;101114.66;4432699;32;20381;-67
2022/08/05 03:05:53;;;;;;;;;;;;;;;27.29;26.52;101121.09;4430368;32;20481;-67
2022/08/05 03:08:18;;;;;;;;;;;;;;;27.15;26.73;101123.09;4433809;32;19997;-67
2022/08/05 03:10:44;;;;;;;;;;;;;;;27.07;26.72;101122.16;4432016;32;19992;-67
2022/08/05 03:13:11;;;;;;;;;;;;;;;27.83;25.83;101136.06;4432872;32;20001;-67
2022/08/05 03:15:37;;;;;;;;;;;;;;;27.73;25.95;101132.00;4434408;32;20353;-67
2022/08/05 03:18:03;;;;;;;;;;;;;;;27.31;26.42;101124.22;4432019;32;19985;-67
2022/08/05 03:20:28;;;;;;;;;;;;;;;27.65;26.08;101125.31;4431898;32;20012;-68
2022/08/05 03:22:54;;;;;;;;;;;;;;;27.55;26.19;101126.25;4431731;32;19989;-68
2022/08/05 03:25:21;;;;;;;;;;;;;;;27.65;26.17;101121.63;4429904;32;19985;-68
2022/08/05 03:27:47;;;;;;;;;;;;;;;27.90;25.82;101137.56;4431591;32;20029;-68
2022/08/05 03:30:12;;;;;;;;;;;;;;;27.81;25.86;101137.94;4422051;32;20267;-69
2022/08/05 03:32:38;;;;;;;;;;;;;;;28.03;25.63;101147.06;4424849;32;19949;-68
2022/08/05 03:35:04;;;;;;;;;;;;;;;27.99;25.67;101151.63;4422284;32;20312;-68
2022/08/05 03:37:30;;;;;;;;;;;;;;;27.93;25.77;101153.81;4421031;32;20006;-67
2022/08/05 03:39:57;;;;;;;;;;;;;;;27.79;26.05;101149.28;4420414;32;20009;-68
2022/08/05 03:42:22;;;;;;;;;;;;;;;28.01;25.80;101151.87;4420470;32;19945;-68
2022/08/05 03:44:47;;;;;;;;;;;;;;;27.87;26.08;101148.13;4420995;32;20018;-69
2022/08/05 03:47:13;;;;;;;;;;;;;;;28.03;25.96;101149.97;4419353;32;19969;-69
2022/08/05 03:49:38;;;;;;;;;;;;;;;27.96;26.04;101149.84;4422420;32;20597;-68
2022/08/05 03:52:07;;;;;;;;;;;;;;;27.48;26.60;101141.34;4423753;32;20030;-68
2022/08/05 03:57:10;;;;;;;;;;;;;;;27.67;26.69;101153.69;3951028;32;15723328;-67
2022/08/05 03:59:42;;;;;;;;;;;;;;;27.67;26.69;101153.69;4431412;32;20850;-69
2022/08/05 04:02:09;;;;;;;;;;;;;;;27.04;27.12;101149.25;4432170;32;19977;-67
2022/08/05 04:04:38;;;;;;;;;;;;;;;27.15;27.11;101145.41;4429615;32;19953;-68
2022/08/05 04:07:09;;;;;;;;;;;;;;;27.38;26.90;101151.72;4435696;32;19982;-68
2022/08/05 04:09:36;;;;;;;;;;;;;;;27.40;26.93;101149.84;4437995;32;20277;-68
2022/08/05 04:12:02;;;;;;;;;;;;;;;27.46;26.85;101149.78;4432628;32;19953;-68
2022/08/05 04:14:28;;;;;;;;;;;;;;;27.35;26.92;101150.72;4433159;32;20008;-68
2022/08/05 04:16:53;;;;;;;;;;;;;;;27.12;27.30;101153.06;4431283;32;20189;-68
2022/08/05 04:19:19;;;;;;;;;;;;;;;26.69;27.80;101149.37;4427067;32;20817;-68
2022/08/05 04:21:45;;;;;;;;;;;;;;;26.42;28.31;101155.41;4432988;32;20357;-68
2022/08/05 04:24:11;;;;;;;;;;;;;;;26.45;28.22;101160.84;4432980;32;20391;-68
2022/08/05 04:26:37;;;;;;;;;;;;;;;26.34;28.40;101157.31;4433474;32;19971;-68
2022/08/05 04:29:02;;;;;;;;;;;;;;;26.48;28.15;101159.78;4430641;32;20364;-68
2022/08/05 04:31:28;;;;;;;;;;;;;;;26.55;28.05;101161.31;4434724;32;19968;-68
2022/08/05 04:33:53;;;;;;;;;;;;;;;26.11;28.65;101161.72;4429077;32;19968;-67
2022/08/05 04:36:19;;;;;;;;;;;;;;;26.21;28.53;101157.97;4433931;32;20315;-67
2022/08/05 04:38:44;;;;;;;;;;;;;;;26.41;28.32;101150.94;4429846;32;20638;-67
2022/08/05 04:41:10;;;;;;;;;;;;;;;26.75;27.93;101152.22;4434218;32;20002;-67
2022/08/05 04:43:36;;;;;;;;;;;;;;;26.33;28.53;101161.53;4432954;32;19950;-67
2022/08/05 04:46:03;;;;;;;;;;;;;;;26.48;28.40;101161.91;4433196;32;19989;-67
2022/08/05 04:48:29;;;;;;;;;;;;;;;26.46;28.50;101158.78;4433137;32;19992;-67
2022/08/05 04:50:55;;;;;;;;;;;;;;;26.51;28.33;101163.72;4430517;32;20303;-67
2022/08/05 04:53:20;;;;;;;;;;;;;;;27.04;27.73;101162.91;4435417;32;20522;-67
2022/08/05 04:55:46;;;;;;;;;;;;;;;27.18;27.51;101161.66;4433997;32;19941;-67
2022/08/05 04:58:12;;;;;;;;;;;;;;;27.24;27.22;101165.28;4431725;32;20040;-68
2022/08/05 05:00:39;;;;;;;;;;;;;;;27.41;26.97;101171.66;4433033;32;20358;-68
2022/08/05 05:03:05;;;;;;;;;;;;;;;27.59;26.88;101167.97;4433043;32;20055;-67
2022/08/05 05:05:31;;;;;;;;;;;;;;;27.69;26.75;101169.16;4429782;32;19954;-67
2022/08/05 05:08:01;;;;;;;;;;;;;;;27.60;26.84;101155.06;4423056;32;19989;-68
2022/08/05 05:10:28;;;;;;;;;;;;;;;27.95;26.54;101175.06;4419970;32;19965;-68
2022/08/05 05:12:53;;;;;;;;;;;;;;;27.97;26.36;101174.53;4420081;32;20327;-68
2022/08/05 05:15:19;;;;;;;;;;;;;;;28.20;26.16;101176.53;4418883;32;20788;-68
2022/08/05 05:17:46;;;;;;;;;;;;;;;28.28;26.21;101180.34;4421976;32;20441;-68
2022/08/05 05:20:12;;;;;;;;;;;;;;;27.96;26.67;101170.09;4420614;32;19972;-68
2022/08/05 05:22:38;;;;;;;;;;;;;;;28.38;26.21;101174.91;4421881;32;20004;-68
2022/08/05 05:25:04;;;;;;;;;;;;;;;28.70;25.79;101185.16;4423001;32;19979;-68
2022/08/05 05:27:30;;;;;;;;;;;;;;;28.38;26.00;101190.16;4422077;32;20189;-67
2022/08/05 05:29:55;;;;;;;;;;;;;;;28.07;26.49;101190.94;4419333;32;20027;-67
2022/08/05 05:32:21;;;;;;;;;;;;;;;28.56;26.09;101188.59;4422242;32;19954;-67
2022/08/05 05:34:46;;;;;;;;;;;;;;;28.86;25.58;101189.06;4422744;32;20000;-67
2022/08/05 05:37:13;;;;;;;;;;;;;;;28.95;25.64;101197.31;4418378;32;20184;-67
2022/08/05 05:39:39;;;;;;;;;;;;;;;28.91;25.48;101206.34;4419041;32;19977;-68
2022/08/05 05:42:05;;;;;;;;;;;;;;;28.98;25.62;101205.69;4421419;32;20419;-67
2022/08/05 05:44:31;;;;;;;;;;;;;;;29.21;25.20;101208.94;4425109;32;20012;-67
2022/08/05 05:46:57;;;;;;;;;;;;;;;29.32;24.89;101211.59;4421424;32;19976;-67
2022/08/05 05:49:22;;;;;;;;;;;;;;;29.26;24.80;101213.06;4421799;32;20019;-67
2022/08/05 05:51:48;;;;;;;;;;;;;;;29.27;24.94;101215.41;4424071;32;20011;-67
2022/08/05 05:54:13;;;;;;;;;;;;;;;29.21;25.00;101213.97;4417486;32;20331;-67
2022/08/05 05:56:38;;;;;;;;;;;;;;;29.32;24.96;101228.25;4419255;32;19977;-68
2022/08/05 05:59:04;;;;;;;;;;;;;;;29.14;25.40;101221.19;4422098;32;19976;-68
2022/08/05 06:01:30;;;;;;;;;;;;;;;29.53;25.68;101229.87;4421441;32;20987;-68
2022/08/05 06:03:56;;;;;;;;;;;;;;;29.33;25.35;101238.50;4418255;32;20026;-68
2022/08/05 06:06:22;;;;;;;;;;;;;;;29.35;25.15;101235.78;4417558;32;20004;-68
2022/08/05 06:08:47;;;;;;;;;;;;;;;29.02;25.26;101235.09;4419897;32;20410;-69
2022/08/05 06:11:13;;;;;;;;;;;;;;;28.89;25.23;101243.78;4418563;32;20004;-68
2022/08/05 06:13:38;;;;;;;;;;;;;;;28.71;25.70;101255.44;4422619;32;20395;-68
2022/08/05 06:16:04;;;;;;;;;;;;;;;27.99;26.83;101244.22;4420744;32;19961;-68
2022/08/05 06:18:29;;;;;;;;;;;;;;;28.17;27.21;101255.78;4419388;32;20338;-68
2022/08/05 06:20:55;;;;;;;;;;;;;;;27.43;29.04;101249.94;4422488;32;20381;-68
2022/08/05 06:23:21;;;;;;;;;;;;;;;27.07;29.61;101254.25;4421684;32;19969;-68
2022/08/05 06:25:47;;;;;;;;;;;;;;;27.48;28.78;101259.88;4419379;32;20750;-68
2022/08/05 06:28:13;;;;;;;;;;;;;;;27.34;28.92;101261.88;4421146;32;19981;-68
2022/08/05 06:30:38;;;;;;;;;;;;;;;27.42;29.51;101270.72;4421271;32;20011;-68
2022/08/05 06:33:04;;;;;;;;;;;;;;;27.19;29.76;101270.16;4419237;32;19968;-68
2022/08/05 06:35:29;;;;;;;;;;;;;;;26.98;29.54;101269.06;4418706;32;19972;-67
2022/08/05 06:37:55;;;;;;;;;;;;;;;26.91;29.89;101275.44;4406704;32;20003;-67
2022/08/05 06:40:20;;;;;;;;;;;;;;;26.52;31.32;101267.09;4415184;32;19993;-67
2022/08/05 06:42:46;;;;;;;;;;;;;;;26.47;31.30;101275.78;4419762;32;20031;-67
2022/08/05 06:45:12;;;;;;;;;;;;;;;25.79;32.15;101267.28;4417840;32;20009;-67
2022/08/05 06:47:37;;;;;;;;;;;;;;;25.87;32.35;101280.63;4420190;32;19953;-67
2022/08/05 06:50:03;;;;;;;;;;;;;;;25.11;33.70;101268.84;4416832;32;20007;-67
2022/08/05 06:52:29;;;;;;;;;;;;;;;25.45;33.79;101274.50;4420107;32;20053;-67
2022/08/05 06:54:55;;;;;;;;;;;;;;;25.47;34.15;101264.03;4416502;32;19954;-67
2022/08/05 06:57:20;;;;;;;;;;;;;;;25.53;34.50;101261.91;4418846;32;19961;-67
2022/08/05 06:59:46;;;;;;;;;;;;;;;25.70;33.78;101258.94;4416435;32;20453;-67
2022/08/05 07:02:12;;;;;;;;;;;;;;;26.08;33.17;101261.63;4419690;32;20396;-67
2022/08/05 07:04:38;;;;;;;;;;;;;;;26.31;33.10;101268.03;4421749;32;19964;-67
2022/08/05 07:07:03;;;;;;;;;;;;;;;26.66;32.32;101260.16;4415281;32;19968;-67
2022/08/05 07:09:29;;;;;;;;;;;;;;;26.70;32.81;101263.56;4418699;32;20337;-67
2022/08/05 07:11:55;;;;;;;;;;;;;;;27.19;32.06;101273.06;4417489;32;19949;-68
2022/08/05 07:17:06;;;;;;;;;;;;;;;27.62;30.72;101273.09;4415445;32;19995;-67
2022/08/05 07:19:32;;;;;;;;;;;;;;;27.66;30.85;101268.56;4417748;32;19957;-67
2022/08/05 07:21:57;;;;;;;;;;;;;;;28.10;30.87;101265.09;4421590;32;19993;-68
2022/08/05 07:24:23;;;;;;;;;;;;;;;27.61;30.83;101262.88;4420020;32;20425;-68
2022/08/05 07:26:48;;;;;;;;;;;;;;;28.38;30.18;101262.53;4419000;32;19992;-67
2022/08/05 07:29:14;;;;;;;;;;;;;;;28.18;29.74;101271.81;4417638;32;19993;-67
2022/08/05 07:31:40;;;;;;;;;;;;;;;28.59;29.84;101274.34;4418630;32;20201;-68
2022/08/05 07:34:06;;;;;;;;;;;;;;;28.35;29.36;101286.78;4418350;32;20044;-68
2022/08/05 07:36:32;;;;;;;;;;;;;;;27.19;30.56;101273.06;4416567;32;20035;-68
2022/08/05 07:39:00;;;;;;;;;;;;;;;28.04;29.03;101275.19;4417395;32;20585;-68
2022/08/05 07:41:26;;;;;;;;;;;;;;;28.08;29.42;101282.22;4420708;32;20026;-68
2022/08/05 07:43:52;;;;;;;;;;;;;;;27.67;29.63;101278.78;4417899;32;19993;-68
2022/08/05 07:46:17;;;;;;;;;;;;;;;27.68;30.05;101285.38;4417214;32;20015;-68
2022/08/05 07:48:43;;;;;;;;;;;;;;;27.27;30.44;101281.94;4420470;32;20030;-68
2022/08/05 07:51:09;;;;;;;;;;;;;;;27.84;29.89;101281.47;4419056;32;19993;-68
2022/08/05 07:53:35;;;;;;;;;;;;;;;28.05;29.25;101283.31;4420446;32;20009;-69
2022/08/05 07:56:02;;;;;;;;;;;;;;;28.12;30.04;101285.56;4417201;32;20308;-68
2022/08/05 07:58:27;;;;;;;;;;;;;;;27.95;29.83;101290.81;4421886;32;19957;-68
2022/08/05 08:00:53;;;;;;;;;;;;;;;28.18;28.94;101288.38;4420906;32;20017;-68
2022/08/05 08:03:18;;;;;;;;;;;;;;;28.18;29.28;101297.84;4421986;32;19990;-68
2022/08/05 08:05:44;;;;;;;;;;;;;;;28.26;29.02;101290.09;4416629;32;19993;-68
2022/08/05 08:08:11;;;;;;;;;;;;;;;28.21;28.58;101299.66;4416603;32;19993;-68
2022/08/05 08:10:36;;;;;;;;;;;;;;;28.39;27.88;101295.97;4419008;32;20297;-68
2022/08/05 08:13:02;;;;;;;;;;;;;;;27.68;29.01;101294.84;4416886;32;20393;-68
2022/08/05 08:15:28;;;;;;;;;;;;;;;27.77;28.89;101308.94;4421092;32;20263;-68
2022/08/05 08:17:53;;;;;;;;;;;;;;;27.52;28.55;101301.59;4418472;32;20000;-68
2022/08/05 08:20:20;;;;;;;;;;;;;;;27.14;29.54;101309.34;4416364;32;19976;-68
2022/08/05 08:22:50;;;;;;;;;;;;;;;27.82;29.14;101298.63;4420256;32;19949;-68
2022/08/05 08:25:17;;;;;;;;;;;;;;;28.02;29.14;101310.47;4420563;32;19961;-68
2022/08/05 08:27:43;;;;;;;;;;;;;;;28.51;28.50;101306.06;4417896;32;20026;-68
2022/08/05 08:30:10;;;;;;;;;;;;;;;28.83;28.20;101306.06;4417698;32;20234;-68
2022/08/05 08:32:36;;;;;;;;;;;;;;;28.52;28.16;101310.53;4418446;32;19989;-68
2022/08/05 08:35:02;;;;;;;;;;;;;;;28.77;27.80;101316.94;4416474;32;19952;-68
2022/08/05 08:37:28;;;;;;;;;;;;;;;28.68;28.35;101309.47;4417482;32;20005;-68
2022/08/05 08:39:53;;;;;;;;;;;;;;;29.10;27.30;101325.09;4416029;32;19953;-68
2022/08/05 08:42:20;;;;;;;;;;;;;;;28.93;26.87;101310.12;4418708;32;20008;-68
2022/08/05 08:44:46;;;;;;;;;;;;;;;29.51;26.70;101315.91;4419427;32;19984;-69
2022/08/05 08:47:13;;;;;;;;;;;;;;;29.33;26.37;101313.88;4419431;32;19984;-68
2022/08/05 08:49:42;;;;;;;;;;;;;;;28.98;26.69;101320.81;4421716;32;20334;-69
2022/08/05 08:52:12;;;;;;;;;;;;;;;29.01;27.45;101325.50;4420091;32;20327;-68
2022/08/05 08:54:38;;;;;;;;;;;;;;;28.90;27.20;101325.72;4420650;32;20979;-68
2022/08/05 08:57:06;;;;;;;;;;;;;;;29.29;26.61;101320.00;4417632;32;19992;-68
2022/08/05 08:59:34;;;;;;;;;;;;;;;29.28;26.20;101326.34;4418729;32;20034;-69
2022/08/05 09:02:00;;;;;;;;;;;;;;;28.86;26.86;101331.81;4424196;32;19949;-68
2022/08/05 09:04:26;;;;;;;;;;;;;;;29.25;26.47;101327.47;4423237;32;19985;-68
2022/08/05 09:06:52;;;;;;;;;;;;;;;29.24;26.57;101337.50;4424970;32;19961;-69
2022/08/05 09:09:18;;;;;;;;;;;;;;;29.62;26.23;101333.88;4418300;32;20417;-69
2022/08/05 09:11:44;;;;;;;;;;;;;;;29.82;26.06;101339.00;4408277;32;20021;-69
2022/08/05 09:14:12;;;;;;;;;;;;;;;30.30;25.66;101335.59;4419445;32;19957;-67
2022/08/05 09:16:39;;;;;;;;;;;;;;;29.68;25.77;101334.56;4420741;32;20100;-69
2022/08/05 09:19:06;;;;;;;;;;;;;;;29.78;25.53;101344.38;4419728;32;20423;-68
2022/08/05 09:21:32;;;;;;;;;;;;;;;30.63;24.36;101340.62;4427963;32;20286;-68
2022/08/05 09:24:02;;;;;;;;;;;;;;;30.02;24.72;101341.22;4420385;32;19984;-68
2022/08/05 09:26:29;;;;;;;;;;;;;;;29.88;24.51;101338.91;4422158;32;20323;-68
2022/08/05 09:28:58;;;;;;;;;;;;;;;30.01;24.33;101347.59;4405746;32;19997;-67
2022/08/05 09:31:23;;;;;;;;;;;;;;;30.34;24.12;101336.03;4424545;32;19995;-68
2022/08/05 09:33:51;;;;;;;;;;;;;;;31.09;23.53;101321.53;4420071;32;19950;-67
2022/08/05 09:36:17;;;;;;;;;;;;;;;30.99;23.63;101329.19;4420156;32;20814;-68
2022/08/05 09:38:58;;;;;;;;;;;;;;;31.50;23.27;101333.09;4419130;32;20013;-67
2022/08/05 09:41:24;;;;;;;;;;;;;;;31.59;22.97;101328.87;4421927;32;20501;-69
2022/08/05 09:43:50;;;;;;;;;;;;;;;30.04;23.87;101344.34;4420295;32;19971;-69
2022/08/05 09:46:32;;;;;;;;;;;;;;;30.90;23.56;101326.78;4421525;32;19972;-69
2022/08/05 09:49:03;;;;;;;;;;;;;;;30.97;22.52;101340.59;4421611;32;19991;-69
2022/08/05 09:51:31;;;;;;;;;;;;;;;30.89;22.78;101339.72;4423834;32;19965;-68
2022/08/05 09:53:57;;;;;;;;;;;;;;;31.46;22.39;101338.50;4421247;32;19989;-68
2022/08/05 09:56:23;;;;;;;;;;;;;;;30.44;23.66;101351.63;4418628;32;20003;-69
2022/08/05 09:59:05;;;;;;;;;;;;;;;30.93;23.06;101342.28;4422119;32;20005;-68
2022/08/05 10:01:32;;;;;;;;;;;;;;;29.90;24.34;101336.19;4421219;32;20039;-69
2022/08/05 10:04:00;;;;;;;;;;;;;;;30.12;24.31;101341.53;4421931;32;20386;-68
2022/08/05 10:06:26;;;;;;;;;;;;;;;31.10;23.40;101336.84;4420896;32;19993;-68
2022/08/05 10:08:53;;;;;;;;;;;;;;;32.18;21.94;101336.44;4421032;32;20001;-69
2022/08/05 10:11:18;;;;;;;;;;;;;;;31.84;21.93;101336.62;4423395;32;20392;-68
2022/08/05 10:13:44;;;;;;;;;;;;;;;31.57;22.17;101340.34;4418977;32;20369;-68
2022/08/05 10:16:30;;;;;;;;;;;;;;;32.59;21.59;101336.97;4421341;32;20012;-68
2022/08/05 10:18:57;;;;;;;;;;;;;;;32.91;21.26;101345.22;4417330;32;20217;-68
2022/08/05 10:21:23;;;;;;;;;;;;;;;32.10;21.96;101345.13;4419829;32;20690;-69
2022/08/05 10:23:50;;;;;;;;;;;;;;;32.85;21.05;101358.41;4420397;32;19997;-67
2022/08/05 10:26:16;;;;;;;;;;;;;;;32.50;21.12;101349.19;4418285;32;20078;-68
2022/08/05 10:28:42;;;;;;;;;;;;;;;33.62;20.31;101341.91;4415799;32;19964;-68
2022/08/05 10:31:10;;;;;;;;;;;;;;;33.23;20.79;101344.66;4418531;32;20004;-68
2022/08/05 10:33:36;;;;;;;;;;;;;;;31.95;22.32;101336.31;4420900;32;19949;-69
2022/08/05 10:36:03;;;;;;;;;;;;;;;31.21;23.53;101339.44;4420579;32;20355;-69
2022/08/05 10:38:29;;;;;;;;;;;;;;;32.36;22.42;101347.78;4423025;32;19993;-69
2022/08/05 10:41:14;;;;;;;;;;;;;;;32.47;21.35;101355.37;4418614;32;20009;-69
2022/08/05 10:44:00;;;;;;;;;;;;;;;33.06;20.74;101361.94;4420576;32;20000;-68
2022/08/05 10:46:41;;;;;;;;;;;;;;;32.97;20.87;101359.63;4418930;32;19967;-69
2022/08/05 10:49:07;;;;;;;;;;;;;;;32.78;20.91;101373.72;4421673;32;20012;-69
2022/08/05 10:51:41;;;;;;;;;;;;;;;33.05;20.64;101372.84;4420267;32;20004;-69
2022/08/05 10:54:07;;;;;;;;;;;;;;;33.09;20.54;101370.31;4418772;32;19990;-69
2022/08/05 10:56:42;;;;;;;;;;;;;;;33.86;19.95;101367.53;4421921;32;20002;-69
2022/08/05 10:59:08;;;;;;;;;;;;;;;34.46;19.43;101363.69;4419405;32;19965;-69
2022/08/05 11:01:35;;;;;;;;;;;;;;;34.48;19.35;101366.75;4421236;32;20050;-69
2022/08/05 11:04:06;;;;;;;;;;;;;;;34.97;18.96;101369.81;4405305;32;20031;-69
2022/08/05 11:06:32;;;;;;;;;;;;;;;35.83;18.33;101365.75;4418755;32;20455;-68
2022/08/05 11:09:18;;;;;;;;;;;;;;;35.98;18.23;101370.69;4417007;32;20000;-68
2022/08/05 11:11:45;;;;;;;;;;;;;;;35.70;17.94;101379.94;4419100;32;20362;-68
2022/08/05 11:14:11;;;;;;;;;;;;;;;35.48;17.89;101386.78;4416305;32;19960;-68
2022/08/05 11:16:37;;;;;;;;;;;;;;;35.14;18.44;101375.75;4418576;32;20000;-69
2022/08/05 11:19:22;;;;;;;;;;;;;;;35.96;17.71;101382.25;4420179;32;19977;-68
2022/08/05 11:21:48;;;;;;;;;;;;;;;36.45;16.37;101393.00;4419613;32;20317;-68
2022/08/05 11:24:14;;;;;;;;;;;;;;;35.93;17.30;101398.09;4419928;32;20968;-69
2022/08/05 11:26:39;;;;;;;;;;;;;;;36.05;17.66;101382.31;4421027;32;20433;-70
2022/08/05 11:29:05;;;;;;;;;;;;;;;36.33;17.43;101397.84;4420908;32;20032;-68
2022/08/05 11:31:31;;;;;;;;;;;;;;;36.97;16.21;101386.41;4423955;32;20397;-69
2022/08/05 11:33:58;;;;;;;;;;;;;;;37.55;15.84;101388.19;4419918;32;19954;-70
2022/08/05 11:39:15;;;;;;;;;;;;;;;36.97;16.66;101395.22;3942774;32;15722575;-69
2022/08/05 11:41:49;;;;;;;;;;;;;;;36.97;16.66;101395.22;4419600;32;19989;-67
2022/08/05 11:44:15;;;;;;;;;;;;;;;36.41;16.78;101393.44;4407177;32;19964;-68
2022/08/05 11:46:42;;;;;;;;;;;;;;;37.04;16.56;101411.16;4419433;32;20204;-69
2022/08/05 11:49:12;;;;;;;;;;;;;;;36.37;17.20;101415.75;4415815;32;19985;-69
2022/08/05 11:51:39;;;;;;;;;;;;;;;36.80;17.08;101407.00;4418997;32;20295;-70
2022/08/05 11:54:05;;;;;;;;;;;;;;;36.16;17.61;101408.19;4418411;32;19982;-68
2022/08/05 11:56:47;;;;;;;;;;;;;;;36.22;17.36;101415.94;4419025;32;19997;-69
2022/08/05 11:59:18;;;;;;;;;;;;;;;34.76;18.47;101421.22;4415551;32;20418;-69
2022/08/05 12:01:52;;;;;;;;;;;;;;;34.71;18.63;101425.12;4419552;32;20007;-69
2022/08/05 12:04:18;;;;;;;;;;;;;;;34.15;19.30;101414.81;4419737;32;20264;-69
2022/08/05 12:06:44;;;;;;;;;;;;;;;35.33;18.41;101407.38;4419441;32;20416;-68
2022/08/05 12:09:09;;;;;;;;;;;;;;;36.02;17.71;101412.81;4419241;32;20432;-68
2022/08/05 12:11:35;;;;;;;;;;;;;;;35.60;17.99;101411.28;4420366;32;19957;-69
2022/08/05 12:16:37;;;;;;;;;;;;;;;37.28;17.11;101419.81;3970989;31;15743704;-68
2022/08/05 12:19:03;;;;;;;;;;;;;;;37.28;17.11;101419.81;4456395;32;20021;-69
2022/08/05 12:21:30;;;;;;;;;;;;;;;36.71;17.08;101418.62;4456829;32;20404;-68
2022/08/05 12:24:04;;;;;;;;;;;;;;;38.07;15.85;101420.97;4459417;32;20317;-69
2022/08/05 12:26:32;;;;;;;;;;;;;;;37.57;16.17;101416.94;4454663;32;20795;-69
2022/08/05 12:28:57;;;;;;;;;;;;;;;38.00;15.53;101424.81;4454128;32;19999;-70
2022/08/05 12:31:23;;;;;;;;;;;;;;;37.40;15.15;101431.75;4458765;32;20034;-69
2022/08/05 12:33:49;;;;;;;;;;;;;;;37.74;15.43;101423.53;4457341;32;20016;-69
2022/08/05 12:36:15;;;;;;;;;;;;;;;36.34;16.71;101441.22;4457830;32;20008;-69
2022/08/05 12:38:41;;;;;;;;;;;;;;;34.42;17.58;101425.47;4455538;32;20255;-69
2022/08/05 12:41:10;;;;;;;;;;;;;;;34.75;17.54;101446.00;4456871;32;20078;-69
2022/08/05 12:43:47;;;;;;;;;;;;;;;33.88;18.91;101445.84;4461552;32;20313;-70
2022/08/05 12:46:19;;;;;;;;;;;;;;;33.36;20.04;101452.41;4456819;32;20000;-69
2022/08/05 12:48:45;;;;;;;;;;;;;;;33.90;19.55;101435.12;4454289;32;20311;-69
2022/08/05 12:51:13;;;;;;;;;;;;;;;33.40;20.03;101444.06;4448291;32;20007;-69
2022/08/05 12:53:40;;;;;;;;;;;;;;;32.11;21.23;101442.00;4460015;32;19997;-69
2022/08/05 12:56:21;;;;;;;;;;;;;;;33.06;20.54;101432.72;4459710;32;19971;-69
2022/08/05 12:59:07;;;;;;;;;;;;;;;33.76;19.84;101435.91;4447492;32;19961;-69